Medicine Lodge, KS

01:14 PM CST del 16 Gennaio 2017 (GMT -0600)
Medicine Lodge | | Change Station

Alt. 1535 ft 37.30 °N, 98.58 °W | Updated 18 minutes ago

Coperto
Coperto
36 °F
Sembra 28 °F
N
12
Vento Variabile Vento da ONO

Oggi
Massima -- | Minima -- °F
--% Possibilità di precip.
Ieri
Massima -- | Minima -- °F
Precip. -- in
Pressione 29.90 in
Visibilità -9999.0 miglia
Nuvole
Raffreddamento del vento 28 °F
Punto di rugiada 34 °F
Umidità 93%
Piovosità 0.53 in
Spessore del manto nevoso Non disponibile.
7:46 AM 5:41 PM
Gobba a levante, 79% visible
METAR KP28 161856Z AUTO 30010KT 02/01 A2987 RMK AO1 SLP124 T00220011
Pressione 29.90 in
Visibilità -9999.0 miglia
Nuvole
Raffreddamento del vento 28 °F
Punto di rugiada 34 °F
Umidità 93%
Piovosità 0.53 in
Spessore del manto nevoso Non disponibile.
7:46 AM 5:41 PM
Gobba a levante, 79% visible
METAR KP28 161856Z AUTO 30010KT 02/01 A2987 RMK AO1 SLP124 T00220011

Get Your Daily Forecast Email!

Thanks for signing up!

Be on the lookout for a verification email in your inbox.

You'll start receiving the daily forecast at 8 AM.

×

10-Day Weather Forecast

Almanac

Astronomia

Jan. 16, 2017 Alba Tramonto
Ora attuale
Crepuscolo civile
Crepuscolo nautico
Crepuscolo astronomico
Luna
Estensione della luce visibile
Lunghezza del giorno
Tomorrow will be .
, % of the Moon is Illuminated

Gli estremi di oggi

State Highs State Lows

Community

WunderPhotos

Upload Photos

1,962,540 foto caricate!

WunderBlog® & News

Nearby

Qualità dell'aria

  Qualità dell'aria Indice AQ Inquinante
Not available.

Profondità neve

Stazione Profondità Altitudine

Attività sismica

Città  Distanza Mag. Data & Ora
Minimo Magnitudo Mostrato è 2.5.

Temperature delle acque costiere

Località Temperatura

Stations

Stazioni meteo nelle vicinanze

Ubicazione della stazione Temp. Raffreddamento del vento Punto di rugiada Umidità Vento Precip. Alt. Aggiornato Tipo
                   

Watches & Warnings

There are currently no watches in effect.